createdAt,value
2022-09-21T00:00:53.504Z,48.96
2022-09-21T00:03:20.957Z,48.32
2022-09-21T00:05:48.121Z,48.14
2022-09-21T00:08:15.258Z,50.79
2022-09-21T00:10:42.845Z,49.81
2022-09-21T00:13:11.874Z,50.61
2022-09-21T00:15:39.450Z,49.68
2022-09-21T00:18:06.874Z,50.88
2022-09-21T00:20:33.981Z,48.10
2022-09-21T00:23:01.089Z,51.21
2022-09-21T00:25:28.504Z,51.94
2022-09-21T00:27:56.063Z,53.52
2022-09-21T00:30:23.216Z,56.92
2022-09-21T00:32:50.588Z,53.41
2022-09-21T00:35:17.720Z,51.95
2022-09-21T00:37:44.886Z,50.21
2022-09-21T00:40:12.490Z,50.55
2022-09-21T00:42:39.641Z,50.74
2022-09-21T00:45:06.929Z,50.72
2022-09-21T00:47:34.260Z,49.66
2022-09-21T00:50:02.561Z,48.84
2022-09-21T00:52:31.652Z,50.68
2022-09-21T00:55:08.130Z,52.01
2022-09-21T00:57:35.613Z,52.09
2022-09-21T01:00:05.085Z,51.63
2022-09-21T01:02:32.335Z,50.57
2022-09-21T01:04:59.485Z,53.41
2022-09-21T01:07:28.415Z,52.22
2022-09-21T01:09:58.358Z,52.41
2022-09-21T01:12:43.904Z,50.43
2022-09-21T01:15:25.114Z,50.46
2022-09-21T01:17:55.217Z,51.86
2022-09-21T01:20:36.003Z,52.66
2022-09-21T01:23:07.196Z,53.30
2022-09-21T01:25:53.490Z,55.01
2022-09-21T01:28:30.367Z,53.62
2022-09-21T01:30:58.640Z,54.33
2022-09-21T01:33:25.968Z,54.67
2022-09-21T01:35:54.849Z,55.45
2022-09-21T01:38:24.630Z,54.85
2022-09-21T01:40:52.958Z,54.96
2022-09-21T01:43:25.417Z,54.38
2022-09-21T01:45:54.587Z,56.70
2022-09-21T01:48:22.368Z,53.39
2022-09-21T01:50:56.536Z,51.98
2022-09-21T01:53:25.371Z,51.53
2022-09-21T01:55:53.997Z,51.70
2022-09-21T01:58:21.081Z,50.65
2022-09-21T02:00:53.016Z,52.73
2022-09-21T02:03:30.803Z,52.43
2022-09-21T02:05:58.958Z,52.02
2022-09-21T02:08:26.935Z,53.36
2022-09-21T02:10:54.078Z,52.63
2022-09-21T02:13:23.386Z,52.01
2022-09-21T02:15:56.593Z,51.65
2022-09-21T02:18:26.734Z,50.61
2022-09-21T02:20:57.126Z,50.49
2022-09-21T02:23:32.361Z,53.08
2022-09-21T02:26:06.831Z,55.08
2022-09-21T02:28:43.792Z,54.37
2022-09-21T02:31:20.926Z,54.49
2022-09-21T02:33:52.064Z,54.57
2022-09-21T02:36:26.476Z,52.73
2022-09-21T02:38:54.520Z,53.08
2022-09-21T02:41:24.048Z,52.03
2022-09-21T02:43:53.284Z,53.68
2022-09-21T02:46:29.520Z,51.32
2022-09-21T02:48:58.225Z,50.89
2022-09-21T02:51:26.324Z,51.47
2022-09-21T02:53:53.664Z,52.89
2022-09-21T02:56:21.029Z,51.43
2022-09-21T02:58:49.857Z,52.64
2022-09-21T03:01:16.977Z,53.80
2022-09-21T03:03:44.883Z,52.63
2022-09-21T03:06:12.062Z,51.88
2022-09-21T03:08:39.207Z,51.75
2022-09-21T03:11:07.009Z,50.39
2022-09-21T03:13:34.608Z,52.03
2022-09-21T03:16:02.918Z,50.01
2022-09-21T03:18:30.749Z,50.19
2022-09-21T03:20:58.036Z,49.52
2022-09-21T03:23:25.181Z,53.28
2022-09-21T03:25:52.553Z,50.14
2022-09-21T03:28:20.011Z,50.05
2022-09-21T03:30:50.918Z,49.26
2022-09-21T03:33:19.262Z,49.37
2022-09-21T03:35:48.251Z,50.73
2022-09-21T03:38:16.816Z,51.70
2022-09-21T03:40:47.921Z,51.52
2022-09-21T03:43:15.137Z,50.95
2022-09-21T03:45:42.714Z,51.43
2022-09-21T03:48:10.980Z,51.43
2022-09-21T03:50:38.293Z,50.63
2022-09-21T03:53:05.803Z,53.61
2022-09-21T03:55:33.313Z,52.51
2022-09-21T03:58:00.681Z,51.54
2022-09-21T04:00:27.998Z,49.59
2022-09-21T04:02:55.443Z,50.70
2022-09-21T04:05:22.869Z,50.58
2022-09-21T04:07:50.237Z,48.74
2022-09-21T04:10:19.681Z,49.46
2022-09-21T04:12:47.029Z,48.75
2022-09-21T04:15:15.522Z,48.38
2022-09-21T04:17:42.925Z,48.52
2022-09-21T04:20:10.029Z,50.70
2022-09-21T04:22:41.244Z,49.22
2022-09-21T04:25:10.770Z,48.68
2022-09-21T04:27:38.008Z,51.15
2022-09-21T04:30:05.851Z,51.14
2022-09-21T04:32:33.267Z,51.18
2022-09-21T04:35:00.399Z,52.17
2022-09-21T04:37:27.591Z,51.94
2022-09-21T04:39:54.998Z,53.58
2022-09-21T04:42:22.206Z,51.73
2022-09-21T04:44:49.319Z,49.99
2022-09-21T04:47:16.740Z,53.63
2022-09-21T04:49:43.883Z,53.38
2022-09-21T04:52:12.220Z,57.70
2022-09-21T04:54:41.185Z,54.36
2022-09-21T04:57:08.327Z,55.80
2022-09-21T04:59:35.456Z,55.85
2022-09-21T05:02:02.861Z,54.63
2022-09-21T05:04:30.017Z,51.98
2022-09-21T05:06:59.369Z,54.34
2022-09-21T05:09:45.595Z,51.89
2022-09-21T05:12:12.734Z,53.22
2022-09-21T05:14:41.040Z,55.04
2022-09-21T05:17:08.328Z,57.01
2022-09-21T05:19:35.449Z,53.74
2022-09-21T05:22:02.873Z,54.52
2022-09-21T05:24:29.991Z,50.95
2022-09-21T05:26:57.102Z,54.37
2022-09-21T05:29:24.662Z,53.38
2022-09-21T05:31:52.756Z,55.75
2022-09-21T05:34:22.867Z,53.23
2022-09-21T05:36:50.222Z,53.78
2022-09-21T05:39:17.494Z,52.42
2022-09-21T05:41:44.742Z,52.05
2022-09-21T05:44:13.394Z,52.88
2022-09-21T05:46:54.008Z,50.06
2022-09-21T05:49:42.322Z,53.65
2022-09-21T05:52:12.975Z,53.25
2022-09-21T05:54:47.137Z,51.73
2022-09-21T05:57:34.324Z,52.90
2022-09-21T06:00:04.523Z,52.72
2022-09-21T06:02:45.267Z,56.40
2022-09-21T06:05:13.201Z,54.18
2022-09-21T06:07:41.560Z,52.20
2022-09-21T06:10:09.589Z,52.82
2022-09-21T06:12:36.971Z,51.52
2022-09-21T06:15:04.909Z,52.70
2022-09-21T06:17:32.586Z,52.94
2022-09-21T06:19:59.960Z,51.38
2022-09-21T06:22:27.062Z,53.50
2022-09-21T06:24:54.185Z,51.70
2022-09-21T06:27:21.713Z,52.11
2022-09-21T06:29:48.882Z,53.57
2022-09-21T06:32:16.072Z,51.38
2022-09-21T06:34:44.666Z,51.66
2022-09-21T06:37:11.829Z,51.36
2022-09-21T06:39:39.871Z,54.09
2022-09-21T06:42:07.377Z,53.57
2022-09-21T06:44:35.247Z,53.89
2022-09-21T06:47:02.368Z,52.37
2022-09-21T06:49:29.773Z,53.38
2022-09-21T06:51:56.874Z,52.26
2022-09-21T06:54:24.619Z,51.33
2022-09-21T06:56:52.013Z,51.67
2022-09-21T06:59:19.174Z,54.47
2022-09-21T07:01:46.449Z,54.02
2022-09-21T07:04:13.943Z,51.24
2022-09-21T07:06:41.077Z,51.98
2022-09-21T07:11:55.667Z,52.26
2022-09-21T07:14:23.459Z,51.89
2022-09-21T07:16:50.747Z,51.66
2022-09-21T07:19:18.166Z,51.72
2022-09-21T07:21:45.292Z,52.33
2022-09-21T07:24:12.790Z,52.96
2022-09-21T07:26:40.383Z,52.04
2022-09-21T07:29:07.792Z,52.12
2022-09-21T07:31:36.011Z,50.26
2022-09-21T07:34:03.462Z,53.01
2022-09-21T07:36:30.617Z,51.02
2022-09-21T07:38:58.789Z,53.09
2022-09-21T07:41:26.207Z,54.42
2022-09-21T07:43:53.583Z,49.85
2022-09-21T07:46:20.714Z,51.92
2022-09-21T07:48:48.221Z,50.87
2022-09-21T07:51:15.499Z,51.25
2022-09-21T07:53:44.029Z,50.72
2022-09-21T07:56:12.537Z,50.57
2022-09-21T07:58:58.227Z,48.99
2022-09-21T08:01:25.972Z,49.14
2022-09-21T08:03:54.455Z,50.80
2022-09-21T08:06:22.112Z,51.29
2022-09-21T08:08:53.702Z,50.42
2022-09-21T08:11:24.193Z,47.62
2022-09-21T08:13:55.192Z,47.03
2022-09-21T08:16:22.744Z,48.28
2022-09-21T08:18:51.569Z,46.38
2022-09-21T08:21:19.289Z,46.63
2022-09-21T08:23:48.614Z,47.90
2022-09-21T08:26:20.615Z,46.48
2022-09-21T08:28:49.299Z,47.31
2022-09-21T08:31:19.550Z,46.10
2022-09-21T08:33:47.238Z,45.51
2022-09-21T08:36:14.365Z,45.71
2022-09-21T08:38:41.764Z,46.97
2022-09-21T08:41:18.098Z,47.09
2022-09-21T08:43:50.233Z,45.52
2022-09-21T08:46:19.180Z,46.19
2022-09-21T08:48:56.808Z,45.73
2022-09-21T08:51:26.740Z,46.90
2022-09-21T08:53:55.954Z,48.44
2022-09-21T08:56:23.627Z,45.69
2022-09-21T08:58:50.761Z,46.11
2022-09-21T09:01:24.248Z,45.84
2022-09-21T09:04:16.214Z,43.66
2022-09-21T09:06:47.932Z,44.59
2022-09-21T09:09:33.965Z,47.68
2022-09-21T09:12:01.325Z,45.82
2022-09-21T09:14:32.159Z,46.42
2022-09-21T09:17:19.021Z,43.80
2022-09-21T09:19:49.222Z,45.24
2022-09-21T09:22:18.079Z,44.94
2022-09-21T09:24:49.445Z,45.16
2022-09-21T09:27:27.756Z,45.74
2022-09-21T09:30:03.685Z,44.38
2022-09-21T09:32:43.872Z,43.52
2022-09-21T09:35:20.094Z,43.25
2022-09-21T09:37:47.500Z,41.68
2022-09-21T09:40:14.833Z,43.07
2022-09-21T09:42:48.249Z,42.31
2022-09-21T09:45:26.342Z,42.86
2022-09-21T09:47:53.683Z,45.07
2022-09-21T09:50:24.402Z,44.94
2022-09-21T09:52:53.140Z,43.36
2022-09-21T09:55:25.800Z,44.60
2022-09-21T09:57:54.957Z,44.84
2022-09-21T10:00:22.666Z,44.98
2022-09-21T10:02:51.478Z,44.50
2022-09-21T10:05:20.017Z,43.56
2022-09-21T10:07:47.294Z,43.63
2022-09-21T10:10:32.975Z,42.24
2022-09-21T10:13:15.295Z,42.94
2022-09-21T10:15:57.450Z,43.45
2022-09-21T10:18:25.588Z,43.54
2022-09-21T10:20:56.140Z,41.90
2022-09-21T10:23:23.397Z,43.15
2022-09-21T10:25:54.541Z,42.67
2022-09-21T10:28:21.996Z,43.01
2022-09-21T10:30:49.407Z,42.38
2022-09-21T10:33:20.474Z,41.43
2022-09-21T10:35:53.953Z,42.86
2022-09-21T10:38:22.751Z,42.08
2022-09-21T10:40:50.462Z,41.81
2022-09-21T10:43:43.624Z,41.90
2022-09-21T10:46:11.471Z,42.14
2022-09-21T10:48:38.638Z,39.52
2022-09-21T10:51:05.779Z,42.51
2022-09-21T10:53:36.789Z,40.81
2022-09-21T10:56:16.735Z,40.68
2022-09-21T10:59:03.997Z,38.55
2022-09-21T11:01:31.332Z,40.95
2022-09-21T11:04:09.000Z,39.98
2022-09-21T11:06:46.815Z,40.81
2022-09-21T11:09:17.183Z,40.03
2022-09-21T11:11:59.515Z,41.85
2022-09-21T11:14:44.842Z,41.51
2022-09-21T11:17:12.236Z,40.60
2022-09-21T11:19:44.424Z,39.56
2022-09-21T11:22:20.695Z,40.39
2022-09-21T11:25:03.427Z,39.34
2022-09-21T11:27:33.742Z,40.05
2022-09-21T11:30:10.789Z,38.16
2022-09-21T11:32:45.274Z,39.46
2022-09-21T11:35:15.744Z,39.31
2022-09-21T11:37:50.488Z,38.84
2022-09-21T11:40:17.887Z,37.02
2022-09-21T11:42:48.977Z,35.66
2022-09-21T11:45:32.633Z,35.90
2022-09-21T11:47:59.968Z,37.82
2022-09-21T11:50:31.304Z,36.60
2022-09-21T11:53:17.463Z,36.41
2022-09-21T11:55:47.853Z,38.26
2022-09-21T11:58:15.337Z,39.76
2022-09-21T12:00:45.518Z,39.85
2022-09-21T12:03:31.587Z,40.59
2022-09-21T12:06:14.045Z,40.23
2022-09-21T12:08:54.189Z,37.71
2022-09-21T12:11:21.271Z,36.51
2022-09-21T12:13:55.256Z,37.51
2022-09-21T12:16:25.407Z,38.59
2022-09-21T12:18:55.725Z,37.47
2022-09-21T12:21:27.850Z,37.41
2022-09-21T12:23:56.694Z,37.66
2022-09-21T12:26:41.640Z,38.87
2022-09-21T12:29:13.792Z,37.77
2022-09-21T12:31:45.328Z,37.59
2022-09-21T12:34:19.929Z,38.07
2022-09-21T12:37:08.511Z,38.32
2022-09-21T12:39:40.578Z,37.24
2022-09-21T12:42:10.268Z,37.97
2022-09-21T12:44:52.370Z,36.61
2022-09-21T12:47:23.754Z,37.65
2022-09-21T12:49:51.377Z,37.70
2022-09-21T12:52:20.242Z,37.67
2022-09-21T12:54:50.088Z,36.20
2022-09-21T12:57:49.162Z,36.62
2022-09-21T13:00:14.667Z,37.54
2022-09-21T13:03:00.753Z,36.30
2022-09-21T13:05:27.881Z,36.08
2022-09-21T13:07:58.166Z,36.57
2022-09-21T13:10:28.757Z,36.43
2022-09-21T13:12:56.674Z,34.71
2022-09-21T13:15:27.190Z,34.10
2022-09-21T13:17:58.791Z,33.98
2022-09-21T13:20:26.194Z,33.83
2022-09-21T13:22:58.227Z,35.33
2022-09-21T13:25:28.101Z,32.24
2022-09-21T13:28:07.707Z,35.47
2022-09-21T13:30:39.460Z,36.56
2022-09-21T13:33:18.856Z,36.40
2022-09-21T13:35:54.028Z,36.29
2022-09-21T13:38:31.194Z,35.11
2022-09-21T13:41:02.462Z,35.95
2022-09-21T13:43:48.049Z,34.38
2022-09-21T13:46:34.274Z,34.13
2022-09-21T13:49:16.470Z,35.62
2022-09-21T13:51:50.072Z,35.57
2022-09-21T13:54:17.150Z,36.50
2022-09-21T13:56:44.788Z,38.25
2022-09-21T13:59:21.378Z,37.79
2022-09-21T14:01:48.879Z,37.00
2022-09-21T14:04:21.036Z,35.76
2022-09-21T14:06:48.660Z,35.84
2022-09-21T14:09:40.498Z,38.13
2022-09-21T14:12:09.246Z,37.89
2022-09-21T14:14:37.412Z,37.11
2022-09-21T14:17:05.129Z,36.74
2022-09-21T14:19:33.445Z,36.99
2022-09-21T14:22:03.478Z,36.75
2022-09-21T14:24:38.227Z,35.51
2022-09-21T14:27:09.562Z,36.04
2022-09-21T14:29:39.781Z,36.06
2022-09-21T14:32:11.888Z,36.76
2022-09-21T14:34:39.509Z,35.75
2022-09-21T14:37:11.175Z,36.93
2022-09-21T14:39:41.277Z,35.93
2022-09-21T14:42:15.953Z,36.69
2022-09-21T14:44:43.497Z,35.39
2022-09-21T14:47:11.338Z,34.26
2022-09-21T14:49:38.521Z,35.88
2022-09-21T14:52:31.374Z,35.21
2022-09-21T14:55:08.233Z,37.59
2022-09-21T14:58:14.413Z,37.44
2022-09-21T15:00:43.342Z,37.19
2022-09-21T15:03:29.953Z,36.95
2022-09-21T15:06:23.290Z,36.90
2022-09-21T15:09:23.517Z,36.93
2022-09-21T15:11:56.531Z,35.14
2022-09-21T15:14:44.183Z,36.44
2022-09-21T15:17:19.312Z,36.06
2022-09-21T15:19:47.143Z,35.66
2022-09-21T15:22:18.774Z,34.92
2022-09-21T15:24:54.914Z,35.38
2022-09-21T15:27:23.849Z,34.68
2022-09-21T15:29:53.146Z,35.54
2022-09-21T15:32:20.198Z,35.70
2022-09-21T15:34:47.621Z,36.54
2022-09-21T15:37:18.074Z,35.75
2022-09-21T15:39:45.256Z,35.83
2022-09-21T15:42:19.634Z,36.03
2022-09-21T15:44:48.806Z,34.36
2022-09-21T15:47:19.994Z,36.31
2022-09-21T15:49:48.019Z,37.27
2022-09-21T15:52:32.414Z,37.03
2022-09-21T15:55:00.517Z,35.86
2022-09-21T15:57:41.603Z,36.86
2022-09-21T16:00:15.431Z,37.11
2022-09-21T16:02:43.413Z,37.23
2022-09-21T16:05:14.188Z,37.08
2022-09-21T16:07:41.604Z,36.53
2022-09-21T16:10:28.409Z,37.91
2022-09-21T16:13:30.638Z,37.16
2022-09-21T16:16:05.239Z,37.12
2022-09-21T16:18:35.303Z,36.14
2022-09-21T16:21:12.318Z,37.07
2022-09-21T16:23:39.620Z,36.96
2022-09-21T16:26:07.163Z,36.37
2022-09-21T16:28:37.181Z,37.66
2022-09-21T16:31:23.984Z,36.03
2022-09-21T16:33:54.373Z,37.58
2022-09-21T16:36:25.537Z,36.47
2022-09-21T16:38:56.224Z,35.69
2022-09-21T16:41:24.784Z,36.78
2022-09-21T16:43:52.152Z,36.43
2022-09-21T16:46:19.616Z,36.96
2022-09-21T16:48:46.788Z,37.21
2022-09-21T16:51:17.038Z,38.67
2022-09-21T16:53:44.686Z,36.78
2022-09-21T16:56:15.337Z,37.64
2022-09-21T16:58:45.404Z,37.61
2022-09-21T17:01:13.516Z,37.10
2022-09-21T17:03:40.704Z,36.15
2022-09-21T17:06:15.412Z,36.11
2022-09-21T17:08:42.997Z,36.16
2022-09-21T17:11:10.097Z,36.99
2022-09-21T17:13:38.075Z,36.92
2022-09-21T17:16:05.571Z,36.91
2022-09-21T17:18:35.746Z,36.90
2022-09-21T17:21:04.469Z,38.30
2022-09-21T17:23:31.894Z,36.72
2022-09-21T17:25:59.197Z,36.66
2022-09-21T17:28:27.179Z,37.43
2022-09-21T17:30:54.722Z,37.28
2022-09-21T17:33:23.069Z,37.49
2022-09-21T17:35:51.225Z,36.86
2022-09-21T17:38:18.660Z,36.61
2022-09-21T17:40:46.649Z,36.90
2022-09-21T17:43:13.780Z,37.72
2022-09-21T17:45:43.564Z,38.44
2022-09-21T17:48:13.037Z,38.66
2022-09-21T17:50:40.505Z,38.55
2022-09-21T17:53:27.626Z,37.17
2022-09-21T17:55:57.138Z,38.96
2022-09-21T17:58:36.419Z,37.99
2022-09-21T18:01:07.508Z,39.31
2022-09-21T18:03:37.832Z,38.90
2022-09-21T18:06:05.170Z,39.31
2022-09-21T18:08:36.173Z,39.71
2022-09-21T18:11:03.967Z,39.63
2022-09-21T18:13:34.376Z,38.84
2022-09-21T18:16:21.519Z,39.05
2022-09-21T18:19:07.754Z,39.42
2022-09-21T18:21:35.898Z,39.51
2022-09-21T18:24:15.109Z,41.84
2022-09-21T18:26:44.434Z,39.41
2022-09-21T18:29:38.905Z,39.55
2022-09-21T18:32:16.259Z,38.67
2022-09-21T18:34:51.111Z,39.03
2022-09-21T18:37:18.748Z,38.68
2022-09-21T18:39:50.805Z,38.94
2022-09-21T18:42:23.033Z,38.93
2022-09-21T18:44:53.518Z,39.09
2022-09-21T18:47:22.711Z,39.81
2022-09-21T18:49:50.194Z,41.10
2022-09-21T18:52:21.486Z,40.46
2022-09-21T18:54:49.592Z,39.55
2022-09-21T18:57:16.857Z,41.58
2022-09-21T18:59:44.479Z,39.45
2022-09-21T19:02:20.282Z,38.82
2022-09-21T19:04:49.282Z,38.85
2022-09-21T19:07:28.950Z,39.99
2022-09-21T19:10:15.549Z,39.43
2022-09-21T19:12:49.206Z,39.07
2022-09-21T19:15:48.717Z,38.40
2022-09-21T19:18:15.695Z,38.24
2022-09-21T19:21:04.381Z,37.91
2022-09-21T19:23:31.549Z,38.25
2022-09-21T19:26:19.682Z,38.81
2022-09-21T19:28:50.430Z,38.15
2022-09-21T19:31:21.334Z,38.19
2022-09-21T19:33:51.198Z,37.74
2022-09-21T19:36:19.430Z,38.41
2022-09-21T19:38:46.695Z,38.59
2022-09-21T19:41:26.180Z,39.01
2022-09-21T19:43:56.645Z,38.98
2022-09-21T19:46:33.537Z,38.96
2022-09-21T19:49:19.750Z,38.86
2022-09-21T19:51:50.685Z,38.54
2022-09-21T19:54:37.971Z,38.14
2022-09-21T19:57:37.108Z,38.63
2022-09-21T20:00:09.162Z,38.44
2022-09-21T20:02:55.617Z,39.07
2022-09-21T20:05:28.555Z,39.81
2022-09-21T20:08:03.153Z,39.24
2022-09-21T20:10:40.885Z,38.91
2022-09-21T20:13:22.019Z,38.93
2022-09-21T20:15:49.186Z,38.64
2022-09-21T20:18:35.322Z,39.92
2022-09-21T20:21:02.551Z,40.81
2022-09-21T20:23:30.292Z,40.56
2022-09-21T20:25:59.966Z,42.58
2022-09-21T20:28:27.277Z,41.54
2022-09-21T20:30:54.779Z,42.01
2022-09-21T20:33:22.746Z,42.54
2022-09-21T20:35:50.444Z,42.04
2022-09-21T20:38:18.523Z,43.18
2022-09-21T20:40:46.909Z,44.19
2022-09-21T20:43:14.311Z,44.53
2022-09-21T20:45:50.313Z,45.19
2022-09-21T20:48:17.595Z,46.59
2022-09-21T20:50:46.288Z,45.84
2022-09-21T20:53:13.540Z,47.92
2022-09-21T20:55:41.149Z,46.45
2022-09-21T20:58:11.064Z,46.97
2022-09-21T21:00:38.232Z,47.66
2022-09-21T21:03:05.406Z,48.03
2022-09-21T21:05:32.818Z,46.64
2022-09-21T21:07:59.940Z,46.70
2022-09-21T21:10:27.092Z,46.06
2022-09-21T21:12:55.064Z,45.91
2022-09-21T21:15:22.218Z,45.60
2022-09-21T21:17:49.429Z,45.69
2022-09-21T21:20:17.078Z,46.28
2022-09-21T21:22:44.822Z,47.35
2022-09-21T21:25:11.948Z,46.92
2022-09-21T21:27:39.742Z,46.64
2022-09-21T21:30:07.673Z,46.99
2022-09-21T21:32:35.134Z,46.13
2022-09-21T21:35:02.527Z,45.26
2022-09-21T21:37:29.830Z,45.14
2022-09-21T21:39:57.066Z,44.62
2022-09-21T21:42:25.386Z,45.33
2022-09-21T21:44:52.538Z,45.08
2022-09-21T21:50:07.191Z,44.47
2022-09-21T21:52:34.317Z,45.86
2022-09-21T21:55:02.412Z,45.59
2022-09-21T21:57:30.119Z,45.77
2022-09-21T21:59:57.410Z,45.96
2022-09-21T22:02:24.632Z,44.49
2022-09-21T22:04:52.696Z,44.35
2022-09-21T22:07:19.807Z,43.60
2022-09-21T22:09:46.903Z,43.72
2022-09-21T22:12:14.497Z,44.39
2022-09-21T22:14:41.609Z,43.98
2022-09-21T22:17:08.751Z,45.11
2022-09-21T22:19:36.160Z,45.91
2022-09-21T22:22:03.249Z,46.96
2022-09-21T22:24:30.347Z,46.17
2022-09-21T22:26:57.754Z,46.26
2022-09-21T22:29:24.885Z,45.19
2022-09-21T22:31:52.536Z,44.23
2022-09-21T22:34:20.512Z,44.80
2022-09-21T22:36:47.609Z,44.00
2022-09-21T22:39:14.773Z,46.06
2022-09-21T22:41:42.303Z,46.02
2022-09-21T22:44:10.240Z,45.85
2022-09-21T22:46:37.613Z,44.56
2022-09-21T22:49:05.231Z,44.52
2022-09-21T22:51:32.642Z,46.53
2022-09-21T22:54:01.436Z,45.59
2022-09-21T22:56:29.594Z,44.58
2022-09-21T22:58:58.341Z,45.81
2022-09-21T23:01:36.441Z,47.90
2022-09-21T23:04:05.112Z,46.26
2022-09-21T23:06:33.418Z,48.15
2022-09-21T23:09:01.543Z,50.23
2022-09-21T23:11:30.101Z,50.41
2022-09-21T23:13:57.804Z,50.65
2022-09-21T23:16:25.554Z,51.30
2022-09-21T23:18:53.665Z,51.93
2022-09-21T23:21:21.793Z,50.70
2022-09-21T23:23:49.056Z,50.77
2022-09-21T23:26:17.587Z,53.33
2022-09-21T23:28:45.755Z,52.18
2022-09-21T23:31:13.765Z,53.44
2022-09-21T23:33:42.455Z,52.67
2022-09-21T23:36:10.257Z,54.34
2022-09-21T23:38:37.738Z,52.53
2022-09-21T23:41:06.730Z,53.10
2022-09-21T23:43:34.317Z,53.42
2022-09-21T23:46:01.865Z,52.04
2022-09-21T23:48:29.307Z,51.07
2022-09-21T23:50:56.786Z,49.39
2022-09-21T23:53:24.239Z,49.02
2022-09-21T23:55:51.765Z,49.88
2022-09-21T23:58:18.941Z,50.48
